sensor_id;sensor_type;location;lat;lon;timestamp;pressure;altitude;pressure_sealevel;temperature;humidity
35443;BME280;21561;55.654;37.592;2023-11-21T00:01:16;98781.81;;;-8.91;87.40
35443;BME280;21561;55.654;37.592;2023-11-21T00:03:44;98799.44;;;-8.91;87.04
35443;BME280;21561;55.654;37.592;2023-11-21T00:06:11;98791.97;;;-8.90;87.27
35443;BME280;21561;55.654;37.592;2023-11-21T00:08:38;98795.88;;;-8.95;87.05
35443;BME280;21561;55.654;37.592;2023-11-21T00:11:05;98789.09;;;-8.96;87.17
35443;BME280;21561;55.654;37.592;2023-11-21T00:13:32;98791.00;;;-8.92;87.19
35443;BME280;21561;55.654;37.592;2023-11-21T00:15:59;98795.25;;;-8.91;87.29
35443;BME280;21561;55.654;37.592;2023-11-21T00:18:26;98793.00;;;-8.86;87.19
35443;BME280;21561;55.654;37.592;2023-11-21T00:20:53;98794.72;;;-8.85;86.83
35443;BME280;21561;55.654;37.592;2023-11-21T00:23:20;98787.88;;;-8.88;86.23
35443;BME280;21561;55.654;37.592;2023-11-21T00:25:47;98798.09;;;-8.85;86.10
35443;BME280;21561;55.654;37.592;2023-11-21T00:28:14;98784.94;;;-8.95;85.76
35443;BME280;21561;55.654;37.592;2023-11-21T00:30:41;98791.38;;;-9.00;85.54
35443;BME280;21561;55.654;37.592;2023-11-21T00:33:08;98787.72;;;-9.06;85.88
35443;BME280;21561;55.654;37.592;2023-11-21T00:35:36;98794.31;;;-9.08;86.23
35443;BME280;21561;55.654;37.592;2023-11-21T00:38:03;98787.72;;;-9.06;85.90
35443;BME280;21561;55.654;37.592;2023-11-21T00:40:30;98787.63;;;-9.07;85.83
35443;BME280;21561;55.654;37.592;2023-11-21T00:42:58;98791.00;;;-9.07;86.20
35443;BME280;21561;55.654;37.592;2023-11-21T00:45:25;98787.72;;;-9.06;86.20
35443;BME280;21561;55.654;37.592;2023-11-21T00:47:52;98779.25;;;-9.08;85.93
35443;BME280;21561;55.654;37.592;2023-11-21T00:50:19;98776.56;;;-9.11;86.10
35443;BME280;21561;55.654;37.592;2023-11-21T00:52:46;98782.53;;;-9.09;86.12
35443;BME280;21561;55.654;37.592;2023-11-21T00:55:13;98791.19;;;-9.04;86.08
35443;BME280;21561;55.654;37.592;2023-11-21T00:57:40;98782.72;;;-9.06;86.69
35443;BME280;21561;55.654;37.592;2023-11-21T01:00:07;98787.22;;;-9.00;86.45
35443;BME280;21561;55.654;37.592;2023-11-21T01:02:40;98779.03;;;-8.96;86.25
35443;BME280;21561;55.654;37.592;2023-11-21T01:05:07;98791.69;;;-8.94;85.99
35443;BME280;21561;55.654;37.592;2023-11-21T01:07:34;98788.56;;;-8.90;85.96
35443;BME280;21561;55.654;37.592;2023-11-21T01:10:04;98782.88;;;-8.88;85.78
35443;BME280;21561;55.654;37.592;2023-11-21T01:12:37;98784.94;;;-8.95;85.67
35443;BME280;21561;55.654;37.592;2023-11-21T01:15:06;98794.22;;;-9.09;85.95
35443;BME280;21561;55.654;37.592;2023-11-21T01:17:38;98787.53;;;-9.09;86.14
35443;BME280;21561;55.654;37.592;2023-11-21T01:20:06;98784.31;;;-9.06;86.64
35443;BME280;21561;55.654;37.592;2023-11-21T01:22:41;98785.47;;;-9.01;86.05
35443;BME280;21561;55.654;37.592;2023-11-21T01:25:08;98784.78;;;-8.98;86.31
35443;BME280;21561;55.654;37.592;2023-11-21T01:27:36;98771.25;;;-9.00;85.93
35443;BME280;21561;55.654;37.592;2023-11-21T01:30:06;98773.59;;;-9.04;86.18
35443;BME280;21561;55.654;37.592;2023-11-21T01:32:34;98786.78;;;-9.08;85.90
35443;BME280;21561;55.654;37.592;2023-11-21T01:35:01;98782.72;;;-9.06;85.52
35443;BME280;21561;55.654;37.592;2023-11-21T01:37:29;98788.69;;;-9.04;85.31
35443;BME280;21561;55.654;37.592;2023-11-21T01:39:57;98782.72;;;-9.06;85.33
35443;BME280;21561;55.654;37.592;2023-11-21T01:42:24;98782.53;;;-9.09;85.83
35443;BME280;21561;55.654;37.592;2023-11-21T01:44:51;98780.97;;;-9.07;85.95
35443;BME280;21561;55.654;37.592;2023-11-21T01:47:18;98774.72;;;-8.98;85.75
35443;BME280;21561;55.654;37.592;2023-11-21T01:49:45;98786.50;;;-8.97;85.85
35443;BME280;21561;55.654;37.592;2023-11-21T01:52:13;98791.38;;;-9.00;85.66
35443;BME280;21561;55.654;37.592;2023-11-21T01:54:41;98786.50;;;-8.97;86.00
35443;BME280;21561;55.654;37.592;2023-11-21T01:57:09;98792.91;;;-9.03;86.21
35443;BME280;21561;55.654;37.592;2023-11-21T01:59:37;98790.56;;;-8.99;86.26
35443;BME280;21561;55.654;37.592;2023-11-21T02:02:08;98789.91;;;-8.97;85.88
35443;BME280;21561;55.654;37.592;2023-11-21T02:04:36;98791.38;;;-9.00;86.03
35443;BME280;21561;55.654;37.592;2023-11-21T02:07:04;98794.84;;;-8.98;86.28
35443;BME280;21561;55.654;37.592;2023-11-21T02:09:34;98786.69;;;-8.94;85.79
35443;BME280;21561;55.654;37.592;2023-11-21T02:12:01;98789.19;;;-8.94;85.10
35443;BME280;21561;55.654;37.592;2023-11-21T02:14:29;98784.34;;;-8.91;85.38
35443;BME280;21561;55.654;37.592;2023-11-21T02:16:56;98791.88;;;-8.91;84.46
35443;BME280;21561;55.654;37.592;2023-11-21T02:19:25;98779.13;;;-8.94;84.65
35443;BME280;21561;55.654;37.592;2023-11-21T02:22:17;98790.69;;;-9.13;84.25
35443;BME280;21561;55.654;37.592;2023-11-21T02:24:46;98782.53;;;-9.09;84.43
35443;BME280;21561;55.654;37.592;2023-11-21T02:27:13;98785.66;;;-9.13;84.15
35443;BME280;21561;55.654;37.592;2023-11-21T02:29:40;98792.16;;;-9.16;84.03
35443;BME280;21561;55.654;37.592;2023-11-21T02:32:07;98792.31;;;-9.13;84.30
35443;BME280;21561;55.654;37.592;2023-11-21T02:34:37;98787.47;;;-9.10;83.63
35443;BME280;21561;55.654;37.592;2023-11-21T02:37:04;98787.38;;;-9.12;83.87
35443;BME280;21561;55.654;37.592;2023-11-21T02:39:32;98790.69;;;-9.13;83.72
35443;BME280;21561;55.654;37.592;2023-11-21T02:41:59;98787.38;;;-9.12;83.18
35443;BME280;21561;55.654;37.592;2023-11-21T02:44:26;98793.78;;;-9.17;81.94
35443;BME280;21561;55.654;37.592;2023-11-21T02:46:53;98779.94;;;-9.25;82.17
35443;BME280;21561;55.654;37.592;2023-11-21T02:49:20;98792.75;;;-9.21;81.73
35443;BME280;21561;55.654;37.592;2023-11-21T02:51:47;98796.56;;;-9.27;81.77
35443;BME280;21561;55.654;37.592;2023-11-21T02:54:14;98793.78;;;-9.32;82.16
35443;BME280;21561;55.654;37.592;2023-11-21T02:56:43;98803.16;;;-9.29;82.14
35443;BME280;21561;55.654;37.592;2023-11-21T02:59:10;98807.38;;;-9.28;82.38
35443;BME280;21561;55.654;37.592;2023-11-21T03:01:37;98801.94;;;-9.21;82.55
35443;BME280;21561;55.654;37.592;2023-11-21T03:04:04;98809.03;;;-9.14;81.95
35443;BME280;21561;55.654;37.592;2023-11-21T03:06:31;98804.53;;;-9.19;81.67
35443;BME280;21561;55.654;37.592;2023-11-21T03:08:58;98808.19;;;-9.14;81.32
35443;BME280;21561;55.654;37.592;2023-11-21T03:11:24;98825.50;;;-9.19;81.13
35443;BME280;21561;55.654;37.592;2023-11-21T03:13:52;98826.81;;;-9.11;80.40
35443;BME280;21561;55.654;37.592;2023-11-21T03:16:18;98823.25;;;-9.29;79.93
35443;BME280;21561;55.654;37.592;2023-11-21T03:18:46;98820.03;;;-9.27;80.66
35443;BME280;21561;55.654;37.592;2023-11-21T03:21:13;98829.47;;;-9.23;80.09
35443;BME280;21561;55.654;37.592;2023-11-21T03:23:40;98820.03;;;-9.27;80.26
35443;BME280;21561;55.654;37.592;2023-11-21T03:26:11;98818.56;;;-9.23;80.33
35443;BME280;21561;55.654;37.592;2023-11-21T03:28:39;98818.56;;;-9.23;79.97
35443;BME280;21561;55.654;37.592;2023-11-21T03:31:06;98824.34;;;-9.24;80.08
35443;BME280;21561;55.654;37.592;2023-11-21T03:33:33;98828.44;;;-9.26;80.30
35443;BME280;21561;55.654;37.592;2023-11-21T03:36:01;98842.84;;;-9.24;80.53
35443;BME280;21561;55.654;37.592;2023-11-21T03:38:29;98830.59;;;-9.32;80.42
35443;BME280;21561;55.654;37.592;2023-11-21T03:40:56;98840.75;;;-9.31;80.56
35443;BME280;21561;55.654;37.592;2023-11-21T03:43:23;98843.16;;;-9.32;81.05
35443;BME280;21561;55.654;37.592;2023-11-21T03:45:51;98835.13;;;-9.27;80.89
35443;BME280;21561;55.654;37.592;2023-11-21T03:48:18;98838.16;;;-9.32;81.53
35443;BME280;21561;55.654;37.592;2023-11-21T03:50:45;98839.81;;;-9.33;81.54
35443;BME280;21561;55.654;37.592;2023-11-21T03:53:12;98835.72;;;-9.31;81.12
35443;BME280;21561;55.654;37.592;2023-11-21T03:55:39;98837.34;;;-9.31;81.78
35443;BME280;21561;55.654;37.592;2023-11-21T03:58:06;98821.41;;;-9.32;81.55
35443;BME280;21561;55.654;37.592;2023-11-21T04:00:32;98824.97;;;-9.28;81.45
35443;BME280;21561;55.654;37.592;2023-11-21T04:02:59;98828.94;;;-9.32;81.85
35443;BME280;21561;55.654;37.592;2023-11-21T04:05:26;98846.44;;;-9.33;82.35
35443;BME280;21561;55.654;37.592;2023-11-21T04:07:53;98836.59;;;-9.30;82.37
35443;BME280;21561;55.654;37.592;2023-11-21T04:10:20;98838.66;;;-9.38;82.99
35443;BME280;21561;55.654;37.592;2023-11-21T04:12:48;98837.97;;;-9.35;83.21
35443;BME280;21561;55.654;37.592;2023-11-21T04:15:15;98837.78;;;-9.38;82.84
35443;BME280;21561;55.654;37.592;2023-11-21T04:17:43;98833.78;;;-9.35;82.37
35443;BME280;21561;55.654;37.592;2023-11-21T04:20:12;98830.75;;;-9.44;82.79
35443;BME280;21561;55.654;37.592;2023-11-21T04:22:43;98829.28;;;-9.41;83.73
35443;BME280;21561;55.654;37.592;2023-11-21T04:25:14;98836.06;;;-9.39;83.24
35443;BME280;21561;55.654;37.592;2023-11-21T04:27:44;98838.47;;;-9.41;83.17
35443;BME280;21561;55.654;37.592;2023-11-21T04:30:13;98823.59;;;-9.38;83.19
35443;BME280;21561;55.654;37.592;2023-11-21T04:32:40;98837.44;;;-9.45;83.46
35443;BME280;21561;55.654;37.592;2023-11-21T04:35:09;98846.44;;;-9.48;83.55
35443;BME280;21561;55.654;37.592;2023-11-21T04:37:36;98841.50;;;-9.47;84.02
35443;BME280;21561;55.654;37.592;2023-11-21T04:40:04;98848.25;;;-9.46;83.99
35443;BME280;21561;55.654;37.592;2023-11-21T04:42:36;98859.09;;;-9.47;83.82
35443;BME280;21561;55.654;37.592;2023-11-21T04:45:07;98855.25;;;-9.55;83.77
35443;BME280;21561;55.654;37.592;2023-11-21T04:47:39;98866.53;;;-9.48;83.36
35443;BME280;21561;55.654;37.592;2023-11-21T04:50:07;98863.25;;;-9.47;83.56
35443;BME280;21561;55.654;37.592;2023-11-21T04:52:34;98865.66;;;-9.49;84.16
35443;BME280;21561;55.654;37.592;2023-11-21T04:55:01;98869.94;;;-9.33;83.68
35443;BME280;21561;55.654;37.592;2023-11-21T04:57:31;98869.31;;;-9.44;84.13
35443;BME280;21561;55.654;37.592;2023-11-21T04:59:58;98863.59;;;-9.41;83.96
35443;BME280;21561;55.654;37.592;2023-11-21T05:02:25;98866.28;;;-9.38;84.13
35443;BME280;21561;55.654;37.592;2023-11-21T05:05:02;98873.31;;;-9.32;83.72
35443;BME280;21561;55.654;37.592;2023-11-21T05:07:29;98876.25;;;-9.39;84.05
35443;BME280;21561;55.654;37.592;2023-11-21T05:09:58;98872.78;;;-9.42;84.29
35443;BME280;21561;55.654;37.592;2023-11-21T05:12:25;98881.47;;;-9.36;84.06
35443;BME280;21561;55.654;37.592;2023-11-21T05:14:52;98884.75;;;-9.37;83.93
35443;BME280;21561;55.654;37.592;2023-11-21T05:17:19;98877.00;;;-9.41;83.79
35443;BME280;21561;55.654;37.592;2023-11-21T05:19:46;98871.03;;;-9.43;84.06
35443;BME280;21561;55.654;37.592;2023-11-21T05:22:16;98871.03;;;-9.43;83.88
35443;BME280;21561;55.654;37.592;2023-11-21T05:24:42;98871.22;;;-9.39;83.84
35443;BME280;21561;55.654;37.592;2023-11-21T05:27:09;98877.81;;;-9.42;84.07
35443;BME280;21561;55.654;37.592;2023-11-21T05:29:36;98869.47;;;-9.41;84.32
35443;BME280;21561;55.654;37.592;2023-11-21T05:32:04;98871.41;;;-9.36;83.90
35443;BME280;21561;55.654;37.592;2023-11-21T05:34:32;98869.94;;;-9.33;83.70
35443;BME280;21561;55.654;37.592;2023-11-21T05:36:59;98867.91;;;-9.38;83.96
35443;BME280;21561;55.654;37.592;2023-11-21T05:39:25;98866.19;;;-9.39;84.69
35443;BME280;21561;55.654;37.592;2023-11-21T05:41:54;98867.34;;;-9.34;83.77
35443;BME280;21561;55.654;37.592;2023-11-21T05:44:22;98861.91;;;-9.27;83.81
35443;BME280;21561;55.654;37.592;2023-11-21T05:46:50;98871.41;;;-9.36;83.64
35443;BME280;21561;55.654;37.592;2023-11-21T05:49:17;98883.00;;;-9.38;83.78
35443;BME280;21561;55.654;37.592;2023-11-21T05:51:44;98875.19;;;-9.43;84.41
35443;BME280;21561;55.654;37.592;2023-11-21T05:54:12;98888.00;;;-9.38;83.79
35443;BME280;21561;55.654;37.592;2023-11-21T05:56:38;98877.44;;;-9.48;84.39
35443;BME280;21561;55.654;37.592;2023-11-21T05:59:05;98882.28;;;-9.51;84.69
35443;BME280;21561;55.654;37.592;2023-11-21T06:01:33;98888.84;;;-9.53;85.12
35443;BME280;21561;55.654;37.592;2023-11-21T06:04:01;98894.06;;;-9.50;84.84
35443;BME280;21561;55.654;37.592;2023-11-21T06:06:28;98894.06;;;-9.50;84.88
35443;BME280;21561;55.654;37.592;2023-11-21T06:08:55;98895.97;;;-9.46;84.52
35443;BME280;21561;55.654;37.592;2023-11-21T06:11:22;98898.88;;;-9.53;85.69
35443;BME280;21561;55.654;37.592;2023-11-21T06:13:50;98912.44;;;-9.51;85.63
35443;BME280;21561;55.654;37.592;2023-11-21T06:16:16;98904.91;;;-9.51;85.59
35443;BME280;21561;55.654;37.592;2023-11-21T06:18:46;98905.66;;;-9.52;85.72
35443;BME280;21561;55.654;37.592;2023-11-21T06:21:13;98904.72;;;-9.54;86.26
35443;BME280;21561;55.654;37.592;2023-11-21T06:23:40;98904.91;;;-9.51;86.35
35443;BME280;21561;55.654;37.592;2023-11-21T06:26:07;98918.91;;;-9.54;86.16
35443;BME280;21561;55.654;37.592;2023-11-21T06:28:35;98917.06;;;-9.57;87.40
35443;BME280;21561;55.654;37.592;2023-11-21T06:31:03;98906.25;;;-9.56;87.84
35443;BME280;21561;55.654;37.592;2023-11-21T06:33:32;98916.56;;;-9.51;88.16
35443;BME280;21561;55.654;37.592;2023-11-21T06:36:02;98913.97;;;-9.53;87.96
35443;BME280;21561;55.654;37.592;2023-11-21T06:38:29;98916.06;;;-9.46;87.92
35443;BME280;21561;55.654;37.592;2023-11-21T06:40:56;98911.22;;;-9.43;87.01
35443;BME280;21561;55.654;37.592;2023-11-21T06:43:25;98921.47;;;-9.39;87.37
35443;BME280;21561;55.654;37.592;2023-11-21T06:45:52;98921.28;;;-9.43;86.47
35443;BME280;21561;55.654;37.592;2023-11-21T06:48:19;98926.50;;;-9.39;86.38
35443;BME280;21561;55.654;37.592;2023-11-21T06:50:47;98914.69;;;-9.41;86.37
35443;BME280;21561;55.654;37.592;2023-11-21T06:53:14;98924.09;;;-9.38;86.97
35443;BME280;21561;55.654;37.592;2023-11-21T06:55:41;98917.00;;;-9.30;86.49
35443;BME280;21561;55.654;37.592;2023-11-21T06:58:08;98918.16;;;-9.38;86.08
35443;BME280;21561;55.654;37.592;2023-11-21T07:00:35;98915.94;;;-9.34;86.10
35443;BME280;21561;55.654;37.592;2023-11-21T07:03:02;98906.94;;;-9.30;86.16
35443;BME280;21561;55.654;37.592;2023-11-21T07:05:29;98916.63;;;-9.36;86.29
35443;BME280;21561;55.654;37.592;2023-11-21T07:07:56;98915.63;;;-9.25;86.15
35443;BME280;21561;55.654;37.592;2023-11-21T07:10:23;98917.19;;;-9.27;85.86
35443;BME280;21561;55.654;37.592;2023-11-21T07:12:50;98920.47;;;-9.28;85.81
35443;BME280;21561;55.654;37.592;2023-11-21T07:15:18;98911.53;;;-9.23;86.34
35443;BME280;21561;55.654;37.592;2023-11-21T07:17:46;98924.81;;;-9.26;85.51
35443;BME280;21561;55.654;37.592;2023-11-21T07:20:15;98922.22;;;-9.27;85.08
35443;BME280;21561;55.654;37.592;2023-11-21T07:22:43;98928.78;;;-9.29;84.89
35443;BME280;21561;55.654;37.592;2023-11-21T07:25:10;98927.03;;;-9.30;85.35
35443;BME280;21561;55.654;37.592;2023-11-21T07:27:38;98931.31;;;-9.29;84.98
35443;BME280;21561;55.654;37.592;2023-11-21T07:30:06;98937.19;;;-9.29;83.97
35443;BME280;21561;55.654;37.592;2023-11-21T07:32:34;98941.94;;;-9.33;84.58
35443;BME280;21561;55.654;37.592;2023-11-21T07:35:01;98929.56;;;-9.30;84.35
35443;BME280;21561;55.654;37.592;2023-11-21T07:37:30;98928.28;;;-9.24;84.75
35443;BME280;21561;55.654;37.592;2023-11-21T07:39:57;98921.38;;;-9.13;84.08
35443;BME280;21561;55.654;37.592;2023-11-21T07:42:24;98929.13;;;-9.23;83.87
35443;BME280;21561;55.654;37.592;2023-11-21T07:44:53;98922.94;;;-9.15;83.88
35443;BME280;21561;55.654;37.592;2023-11-21T07:47:20;98936.69;;;-9.23;84.07
35443;BME280;21561;55.654;37.592;2023-11-21T07:49:47;98937.28;;;-9.27;84.18
35443;BME280;21561;55.654;37.592;2023-11-21T07:52:14;98926.28;;;-9.29;83.85
35443;BME280;21561;55.654;37.592;2023-11-21T07:54:44;98935.53;;;-9.28;83.08
35443;BME280;21561;55.654;37.592;2023-11-21T07:57:11;98924.53;;;-9.30;83.92
35443;BME280;21561;55.654;37.592;2023-11-21T07:59:42;98914.06;;;-9.23;84.98
35443;BME280;21561;55.654;37.592;2023-11-21T08:02:09;98923.78;;;-9.14;84.06
35443;BME280;21561;55.654;37.592;2023-11-21T08:04:36;98921.53;;;-9.10;83.62
35443;BME280;21561;55.654;37.592;2023-11-21T08:07:03;98914.56;;;-9.00;84.36
35443;BME280;21561;55.654;37.592;2023-11-21T08:09:31;98919.50;;;-8.87;83.47
35443;BME280;21561;55.654;37.592;2023-11-21T08:11:57;98917.94;;;-8.85;82.69
35443;BME280;21561;55.654;37.592;2023-11-21T08:14:27;98919.69;;;-8.84;82.33
35443;BME280;21561;55.654;37.592;2023-11-21T08:16:54;98913.69;;;-8.86;81.29
35443;BME280;21561;55.654;37.592;2023-11-21T08:19:24;98929.56;;;-8.87;81.75
35443;BME280;21561;55.654;37.592;2023-11-21T08:21:54;98922.34;;;-8.81;81.68
35443;BME280;21561;55.654;37.592;2023-11-21T08:24:22;98922.91;;;-8.72;82.32
35443;BME280;21561;55.654;37.592;2023-11-21T08:26:49;98926.34;;;-8.85;81.95
35443;BME280;21561;55.654;37.592;2023-11-21T08:29:16;98921.06;;;-8.89;81.38
35443;BME280;21561;55.654;37.592;2023-11-21T08:31:43;98914.31;;;-8.75;87.30
35443;BME280;21561;55.654;37.592;2023-11-21T08:34:13;98919.34;;;-8.60;83.00
35443;BME280;21561;55.654;37.592;2023-11-21T08:36:42;98910.13;;;-8.60;81.41
35443;BME280;21561;55.654;37.592;2023-11-21T08:39:09;98908.50;;;-8.59;81.49
35443;BME280;21561;55.654;37.592;2023-11-21T08:41:36;98919.44;;;-8.59;81.30
35443;BME280;21561;55.654;37.592;2023-11-21T08:44:03;98902.69;;;-8.58;80.56
35443;BME280;21561;55.654;37.592;2023-11-21T08:46:34;98908.75;;;-8.55;80.52
35443;BME280;21561;55.654;37.592;2023-11-21T08:49:01;98907.03;;;-8.56;79.96
35443;BME280;21561;55.654;37.592;2023-11-21T08:51:28;98914.66;;;-8.69;79.40
35443;BME280;21561;55.654;37.592;2023-11-21T08:53:55;98916.13;;;-8.73;79.80
35443;BME280;21561;55.654;37.592;2023-11-21T08:56:25;98915.50;;;-8.84;79.10
35443;BME280;21561;55.654;37.592;2023-11-21T08:58:52;98919.50;;;-8.72;80.05
35443;BME280;21561;55.654;37.592;2023-11-21T09:01:19;98915.38;;;-8.72;79.91
35443;BME280;21561;55.654;37.592;2023-11-21T09:03:47;98933.72;;;-8.73;80.92
35443;BME280;21561;55.654;37.592;2023-11-21T09:06:16;98938.09;;;-8.70;81.48
35443;BME280;21561;55.654;37.592;2023-11-21T09:08:43;98923.84;;;-8.70;82.19
35443;BME280;21561;55.654;37.592;2023-11-21T09:11:10;98932.34;;;-8.68;81.68
35443;BME280;21561;55.654;37.592;2023-11-21T09:13:37;98930.34;;;-8.58;81.71
35443;BME280;21561;55.654;37.592;2023-11-21T09:16:04;98934.97;;;-8.51;81.81
35443;BME280;21561;55.654;37.592;2023-11-21T09:18:32;98938.59;;;-8.46;81.43
35443;BME280;21561;55.654;37.592;2023-11-21T09:20:59;98932.16;;;-8.41;81.03
35443;BME280;21561;55.654;37.592;2023-11-21T09:23:26;98936.38;;;-8.40;80.94
35443;BME280;21561;55.654;37.592;2023-11-21T09:25:53;98929.00;;;-8.37;80.67
35443;BME280;21561;55.654;37.592;2023-11-21T09:28:23;98929.88;;;-8.36;79.99
35443;BME280;21561;55.654;37.592;2023-11-21T09:30:50;98939.78;;;-8.39;79.96
35443;BME280;21561;55.654;37.592;2023-11-21T09:33:17;98936.56;;;-8.37;79.53
35443;BME280;21561;55.654;37.592;2023-11-21T09:35:44;98936.38;;;-8.40;80.41
35443;BME280;21561;55.654;37.592;2023-11-21T09:38:12;98930.97;;;-8.48;80.47
35443;BME280;21561;55.654;37.592;2023-11-21T09:40:38;98944.50;;;-8.46;79.93
35443;BME280;21561;55.654;37.592;2023-11-21T09:43:16;98940.31;;;-8.60;79.45
35443;BME280;21561;55.654;37.592;2023-11-21T09:45:46;98938.09;;;-8.55;78.84
35443;BME280;21561;55.654;37.592;2023-11-21T09:48:17;98949.84;;;-8.25;78.51
35443;BME280;21561;55.654;37.592;2023-11-21T09:50:47;98943.53;;;-7.87;79.15
35443;BME280;21561;55.654;37.592;2023-11-21T09:53:18;98937.91;;;-7.66;78.34
35443;BME280;21561;55.654;37.592;2023-11-21T09:55:49;98947.59;;;-7.89;77.20
35443;BME280;21561;55.654;37.592;2023-11-21T09:58:18;98946.63;;;-8.07;78.13
35443;BME280;21561;55.654;37.592;2023-11-21T10:00:47;98940.63;;;-8.09;78.59
35443;BME280;21561;55.654;37.592;2023-11-21T10:03:15;98950.28;;;-8.32;79.64
35443;BME280;21561;55.654;37.592;2023-11-21T10:05:44;98961.72;;;-8.37;81.15
35443;BME280;21561;55.654;37.592;2023-11-21T10:08:13;98964.44;;;-8.34;81.41
35443;BME280;21561;55.654;37.592;2023-11-21T10:10:43;98959.56;;;-8.31;81.50
35443;BME280;21561;55.654;37.592;2023-11-21T10:13:17;98967.72;;;-8.35;81.71
35443;BME280;21561;55.654;37.592;2023-11-21T10:15:49;98972.41;;;-8.41;82.57
35443;BME280;21561;55.654;37.592;2023-11-21T10:18:17;98966.84;;;-8.35;82.29
35443;BME280;21561;55.654;37.592;2023-11-21T10:20:44;98967.22;;;-8.44;82.38
35443;BME280;21561;55.654;37.592;2023-11-21T10:23:21;98956.97;;;-8.47;83.65
35443;BME280;21561;55.654;37.592;2023-11-21T10:25:51;98957.31;;;-8.41;83.43
35443;BME280;21561;55.654;37.592;2023-11-21T10:28:19;98957.06;;;-8.46;83.61
35443;BME280;21561;55.654;37.592;2023-11-21T10:30:47;98952.22;;;-8.42;83.54
35443;BME280;21561;55.654;37.592;2023-11-21T10:33:14;98955.44;;;-8.45;83.47
35443;BME280;21561;55.654;37.592;2023-11-21T10:38:08;98956.97;;;-8.47;83.12
35443;BME280;21561;55.654;37.592;2023-11-21T10:40:41;98958.41;;;-8.52;83.38
35443;BME280;21561;55.654;37.592;2023-11-21T10:43:09;98960.28;;;-8.48;83.93
35443;BME280;21561;55.654;37.592;2023-11-21T10:45:40;98956.41;;;-8.43;84.40
35443;BME280;21561;55.654;37.592;2023-11-21T10:48:13;98951.03;;;-8.33;83.05
35443;BME280;21561;55.654;37.592;2023-11-21T10:50:47;98946.63;;;-8.37;82.28
35443;BME280;21561;55.654;37.592;2023-11-21T10:53:14;98937.38;;;-8.38;81.34
35443;BME280;21561;55.654;37.592;2023-11-21T10:55:42;98948.38;;;-8.36;81.40
35443;BME280;21561;55.654;37.592;2023-11-21T10:58:13;98952.13;;;-8.44;81.87
35443;BME280;21561;55.654;37.592;2023-11-21T11:00:41;98962.91;;;-8.47;81.67
35443;BME280;21561;55.654;37.592;2023-11-21T11:03:10;98954.00;;;-8.40;82.49
35443;BME280;21561;55.654;37.592;2023-11-21T11:05:44;98964.44;;;-8.34;82.61
35443;BME280;21561;55.654;37.592;2023-11-21T11:08:21;98961.81;;;-8.35;83.07
35443;BME280;21561;55.654;37.592;2023-11-21T11:10:55;98952.63;;;-8.35;83.54
35443;BME280;21561;55.654;37.592;2023-11-21T11:13:22;98953.41;;;-8.36;83.29
35443;BME280;21561;55.654;37.592;2023-11-21T11:15:58;98959.03;;;-8.40;83.80
35443;BME280;21561;55.654;37.592;2023-11-21T11:18:29;98964.81;;;-8.42;85.65
35443;BME280;21561;55.654;37.592;2023-11-21T11:21:06;98962.34;;;-8.41;85.88
35443;BME280;21561;55.654;37.592;2023-11-21T11:31:55;98966.94;;;-8.34;83.95
35443;BME280;21561;55.654;37.592;2023-11-21T11:34:44;98973.13;;;-8.43;84.22
35443;BME280;21561;55.654;37.592;2023-11-21T11:37:13;98978.69;;;-8.49;84.54
35443;BME280;21561;55.654;37.592;2023-11-21T11:39:41;98977.09;;;-8.47;84.88
35443;BME280;21561;55.654;37.592;2023-11-21T11:42:15;98982.56;;;-8.39;83.32
35443;BME280;21561;55.654;37.592;2023-11-21T11:47:14;98988.75;;;-8.49;82.62
35443;BME280;21561;55.654;37.592;2023-11-21T11:50:05;98983.72;;;-8.49;83.17
35443;BME280;21561;55.654;37.592;2023-11-21T11:52:44;98981.81;;;-8.53;83.08
35443;BME280;21561;55.654;37.592;2023-11-21T11:55:13;98984.50;;;-8.50;82.86
35443;BME280;21561;55.654;37.592;2023-11-21T11:57:41;98986.84;;;-8.53;82.53
35443;BME280;21561;55.654;37.592;2023-11-21T12:00:09;98990.13;;;-8.54;82.33
35443;BME280;21561;55.654;37.592;2023-11-21T12:02:40;98987.88;;;-8.50;82.17
35443;BME280;21561;55.654;37.592;2023-11-21T12:05:12;98989.16;;;-8.56;82.01
35443;BME280;21561;55.654;37.592;2023-11-21T12:07:53;98989.34;;;-8.53;82.20
35443;BME280;21561;55.654;37.592;2023-11-21T12:10:26;98998.66;;;-8.52;82.57
35443;BME280;21561;55.654;37.592;2023-11-21T12:12:56;99005.41;;;-8.51;82.63
35443;BME280;21561;55.654;37.592;2023-11-21T12:15:25;98994.72;;;-8.47;82.86
35443;BME280;21561;55.654;37.592;2023-11-21T12:17:52;99004.22;;;-8.43;82.31
35443;BME280;21561;55.654;37.592;2023-11-21T12:20:21;99003.16;;;-8.47;82.66
35443;BME280;21561;55.654;37.592;2023-11-21T12:22:52;99005.59;;;-8.48;82.88
35443;BME280;21561;55.654;37.592;2023-11-21T12:25:23;99004.72;;;-8.49;82.50
35443;BME280;21561;55.654;37.592;2023-11-21T12:27:53;99017.88;;;-8.53;82.38
35443;BME280;21561;55.654;37.592;2023-11-21T12:30:22;99012.06;;;-8.67;81.83
35443;BME280;21561;55.654;37.592;2023-11-21T12:32:54;99017.09;;;-8.67;82.51
35443;BME280;21561;55.654;37.592;2023-11-21T12:35:25;99009.91;;;-8.60;82.71
35443;BME280;21561;55.654;37.592;2023-11-21T12:37:53;99013.38;;;-8.58;82.07
35443;BME280;21561;55.654;37.592;2023-11-21T12:40:21;99011.66;;;-8.59;81.24
35443;BME280;21561;55.654;37.592;2023-11-21T12:42:55;99019.34;;;-8.56;81.11
35443;BME280;21561;55.654;37.592;2023-11-21T12:45:27;99020.28;;;-8.69;81.31
35443;BME280;21561;55.654;37.592;2023-11-21T12:47:57;99024.09;;;-8.76;81.77
35443;BME280;21561;55.654;37.592;2023-11-21T12:50:28;99002.59;;;-8.71;82.20
35443;BME280;21561;55.654;37.592;2023-11-21T12:53:06;99015.00;;;-8.74;82.35
35443;BME280;21561;55.654;37.592;2023-11-21T12:55:35;99012.06;;;-8.67;82.21
35443;BME280;21561;55.654;37.592;2023-11-21T12:58:06;99005.72;;;-8.60;82.76
35443;BME280;21561;55.654;37.592;2023-11-21T13:00:48;99011.03;;;-8.55;82.57
35443;BME280;21561;55.654;37.592;2023-11-21T13:03:16;99012.19;;;-8.50;82.27
35443;BME280;21561;55.654;37.592;2023-11-21T13:05:47;99012.59;;;-8.57;82.17
35443;BME280;21561;55.654;37.592;2023-11-21T13:08:21;99018.72;;;-8.67;83.13
35443;BME280;21561;55.654;37.592;2023-11-21T13:10:52;99032.00;;;-8.70;82.93